createdAt,value
2019-02-25T16:16:19.993Z,29.34
2019-02-25T16:18:49.885Z,29.42
2019-02-25T16:21:19.421Z,29.45
2019-02-25T16:23:48.920Z,29.52
2019-02-25T16:26:20.085Z,29.36
2019-02-25T16:28:53.130Z,30.57
2019-02-25T16:31:24.014Z,31.19
2019-02-25T16:33:55.419Z,32.05
2019-02-25T16:36:26.240Z,32.24
2019-02-25T16:38:58.078Z,32.15
2019-02-25T16:41:31.762Z,32.72
2019-02-25T16:43:59.549Z,32.99
2019-02-25T16:46:29.667Z,33.12
2019-02-25T16:48:59.209Z,33.57
2019-02-25T16:51:30.517Z,34.08
2019-02-25T16:54:00.273Z,34.70
2019-02-25T16:56:29.858Z,35.30
2019-02-25T16:58:59.381Z,35.77
2019-02-25T17:01:29.951Z,36.18
2019-02-25T17:04:00.125Z,36.35
2019-02-25T17:06:30.294Z,36.66
2019-02-25T17:09:00.829Z,36.85
2019-02-25T17:11:31.980Z,36.93
2019-02-25T17:14:03.308Z,36.95
2019-02-25T17:16:32.714Z,37.17
2019-02-25T17:19:02.239Z,37.24
2019-02-25T17:21:31.763Z,37.36
2019-02-25T17:24:03.628Z,37.54
2019-02-25T17:26:32.545Z,37.53
2019-02-25T17:29:02.080Z,37.38
2019-02-25T17:31:32.338Z,37.65
2019-02-25T17:34:02.865Z,37.88
2019-02-25T17:36:32.497Z,38.14
2019-02-25T17:39:02.004Z,38.30
2019-02-25T17:41:34.067Z,38.13
2019-02-25T17:44:05.283Z,38.26
2019-02-25T17:46:37.010Z,38.22
2019-02-25T17:49:07.887Z,38.35
2019-02-25T17:51:38.333Z,38.48
2019-02-25T17:54:08.562Z,38.61
2019-02-25T17:56:40.521Z,39.23
2019-02-25T17:59:10.388Z,39.27
2019-02-25T18:01:40.437Z,39.31
2019-02-25T18:04:11.178Z,40.27
2019-02-25T18:06:41.447Z,39.60
2019-02-25T18:09:11.237Z,40.20
2019-02-25T18:11:42.848Z,40.79
2019-02-25T18:14:13.376Z,40.65
2019-02-25T18:16:46.033Z,40.56
2019-02-25T18:19:15.904Z,40.99
2019-02-25T18:21:47.010Z,41.38
2019-02-25T18:24:16.531Z,41.50
2019-02-25T18:26:46.923Z,40.62
2019-02-25T18:29:19.125Z,41.22
2019-02-25T18:31:49.277Z,41.30
2019-02-25T18:34:18.910Z,41.40
2019-02-25T18:36:49.042Z,41.65
2019-02-25T18:39:20.972Z,41.95
2019-02-25T18:41:52.886Z,42.12
2019-02-25T18:44:22.441Z,42.39
2019-02-25T18:46:52.319Z,42.49
2019-02-25T18:49:21.986Z,42.67
2019-02-25T18:51:51.674Z,42.72
2019-02-25T18:54:22.902Z,43.00
2019-02-25T18:56:52.437Z,43.13
2019-02-25T18:59:23.126Z,43.15
2019-02-25T19:01:54.078Z,43.28
2019-02-25T19:04:24.321Z,43.46
2019-02-25T19:06:53.857Z,43.74
2019-02-25T19:09:25.502Z,43.78
2019-02-25T19:11:56.203Z,44.10
2019-02-25T19:14:26.510Z,44.46
2019-02-25T19:16:57.760Z,44.70
2019-02-25T19:19:28.495Z,44.95
2019-02-25T19:21:58.068Z,45.02
2019-02-25T19:24:27.570Z,45.30
2019-02-25T19:26:57.089Z,45.83
2019-02-25T19:29:28.168Z,45.86
2019-02-25T19:32:00.613Z,46.16
2019-02-25T19:34:30.188Z,46.34
2019-02-25T19:37:02.239Z,47.07
2019-02-25T19:39:30.995Z,47.64
2019-02-25T19:42:00.928Z,47.96
2019-02-25T19:44:32.131Z,48.22
2019-02-25T19:47:01.766Z,48.73
2019-02-25T19:49:31.313Z,49.22
2019-02-25T19:52:00.848Z,49.65
2019-02-25T19:54:34.068Z,49.47
2019-02-25T19:57:01.598Z,49.62
2019-02-25T19:59:32.097Z,49.72
2019-02-25T20:02:01.597Z,49.61
2019-02-25T20:04:33.463Z,49.88
2019-02-25T20:07:02.404Z,49.98
2019-02-25T20:09:32.108Z,50.09
2019-02-25T20:12:01.962Z,50.13
2019-02-25T20:14:31.875Z,49.92
2019-02-25T20:17:02.700Z,49.85
2019-02-25T20:19:32.348Z,50.01
2019-02-25T20:22:01.862Z,50.48
2019-02-25T20:24:31.369Z,50.78
2019-02-25T20:27:02.536Z,50.00
2019-02-25T20:29:33.769Z,49.89
2019-02-25T20:32:03.344Z,49.70
2019-02-25T20:34:34.715Z,49.22
2019-02-25T20:37:04.117Z,49.15
2019-02-25T20:39:35.997Z,49.17
2019-02-25T20:42:05.979Z,49.11
2019-02-25T20:44:35.514Z,49.13
2019-02-25T20:47:05.123Z,49.13
2019-02-25T20:49:34.606Z,49.19
2019-02-25T20:52:04.115Z,49.23
2019-02-25T20:54:38.000Z,49.29
2019-02-25T20:57:05.410Z,49.36
2019-02-25T20:59:35.055Z,49.46
2019-02-25T21:02:09.710Z,49.41
2019-02-25T21:04:38.660Z,49.49
2019-02-25T21:07:08.847Z,49.71
2019-02-25T21:09:40.378Z,49.84
2019-02-25T21:12:12.692Z,50.16
2019-02-25T21:14:43.221Z,50.23
2019-02-25T21:17:12.888Z,50.26
2019-02-25T21:19:44.295Z,51.06
2019-02-25T21:22:13.876Z,51.06
2019-02-25T21:24:43.403Z,51.12
2019-02-25T21:27:12.967Z,50.89
2019-02-25T21:29:42.504Z,50.55
2019-02-25T21:32:15.340Z,50.71
2019-02-25T21:34:46.538Z,50.71
2019-02-25T21:37:14.439Z,50.89
2019-02-25T21:39:43.972Z,50.90
2019-02-25T21:42:15.446Z,51.11
2019-02-25T21:44:46.406Z,51.18
2019-02-25T21:47:15.899Z,51.18
2019-02-25T21:49:45.390Z,51.21
2019-02-25T21:52:17.062Z,51.11
2019-02-25T21:54:46.101Z,50.85
2019-02-25T21:57:16.587Z,51.03
2019-02-25T21:59:46.121Z,51.06
2019-02-25T22:02:15.706Z,51.09
2019-02-25T22:04:47.303Z,51.03
2019-02-25T22:07:20.028Z,50.92
2019-02-25T22:09:47.667Z,50.94
2019-02-25T22:12:17.188Z,51.00
2019-02-25T22:14:47.790Z,51.24
2019-02-25T22:17:19.967Z,51.13
2019-02-25T22:19:50.199Z,51.35
2019-02-25T22:22:24.162Z,51.55
2019-02-25T22:24:50.941Z,51.68
2019-02-25T22:27:21.250Z,51.83
2019-02-25T22:29:51.688Z,52.15
2019-02-25T22:32:21.182Z,52.62
2019-02-25T22:34:50.700Z,52.86
2019-02-25T22:37:22.596Z,52.92
2019-02-25T22:39:52.616Z,52.94
2019-02-25T22:42:22.628Z,53.37
2019-02-25T22:44:53.898Z,53.92
2019-02-25T22:47:23.327Z,54.24
2019-02-25T22:49:52.831Z,53.90
2019-02-25T22:52:24.792Z,54.13
2019-02-25T22:54:53.539Z,54.00
2019-02-25T22:57:24.835Z,53.70
2019-02-25T22:59:54.360Z,53.54
2019-02-25T23:02:27.288Z,53.35
2019-02-25T23:04:56.292Z,53.33
2019-02-25T23:07:27.194Z,53.33
2019-02-25T23:09:56.688Z,53.23
2019-02-25T23:12:28.464Z,53.06
2019-02-25T23:14:58.769Z,52.83
2019-02-25T23:17:31.073Z,52.76
2019-02-25T23:20:00.599Z,52.71
2019-02-25T23:22:32.921Z,52.95
2019-02-25T23:25:03.370Z,53.13
2019-02-25T23:27:34.484Z,53.01
2019-02-25T23:30:08.402Z,52.94
2019-02-25T23:32:38.840Z,52.81
2019-02-25T23:35:09.407Z,52.96
2019-02-25T23:37:38.391Z,53.23
2019-02-25T23:40:09.598Z,53.10
2019-02-25T23:42:46.549Z,53.07
2019-02-25T23:45:17.922Z,53.12
2019-02-25T23:47:47.306Z,53.09
2019-02-25T23:50:16.821Z,53.08
2019-02-25T23:52:47.265Z,52.97
2019-02-25T23:55:19.076Z,53.29
2019-02-25T23:57:47.980Z,53.67
